Time;durP1;ratioP1;P1;durP2;ratioP2;P2;SDS_P1;SDS_P2;PMS_P1;PMS_P2;Temp;Humidity;BMP_temperature;BMP_pressure;BME280_temperature;BME280_humidity;BME280_pressure;Samples;Min_cycle;Max_cycle;Signal;HPM_P1;HPM_P2
2022/11/12 00:00:20;;;;;;;6.22;5.32;;;;;;;9.80;89.76;99512.91;5031588;28;20437;-64
2022/11/12 00:02:45;;;;;;;6.35;5.65;;;;;;;9.55;89.78;99470.34;5022701;28;20088;-64
2022/11/12 00:05:11;;;;;;;8.82;5.80;;;;;;;9.70;90.28;99497.63;5025778;28;20022;-64
2022/11/12 00:07:37;;;;;;;5.72;5.20;;;;;;;9.66;90.52;99489.06;5026887;28;20226;-64
2022/11/12 00:10:03;;;;;;;8.05;5.13;;;;;;;9.71;90.64;99482.09;5046187;28;20024;-64
2022/11/12 00:12:29;;;;;;;5.47;4.97;;;;;;;9.55;91.55;99470.34;5046119;28;20025;-65
2022/11/12 00:14:55;;;;;;;7.38;4.85;;;;;;;9.45;92.53;99464.53;5039480;28;20033;-65
2022/11/12 00:17:21;;;;;;;5.70;5.10;;;;;;;9.44;92.93;99452.50;5031035;28;20022;-65
2022/11/12 00:19:46;;;;;;;6.63;5.35;;;;;;;9.50;93.58;99452.34;5026807;28;20105;-65
2022/11/12 00:22:12;;;;;;;5.78;4.72;;;;;;;9.35;93.74;99456.13;5043715;28;20041;-64
2022/11/12 00:24:38;;;;;;;5.93;4.93;;;;;;;9.46;93.48;99454.16;5033108;28;20029;-64
2022/11/12 00:27:03;;;;;;;6.97;4.65;;;;;;;9.37;93.29;99467.25;5034271;28;20072;-64
2022/11/12 00:29:29;;;;;;;7.47;4.72;;;;;;;9.42;93.37;99451.66;5042479;28;20029;-65
2022/11/12 00:31:54;;;;;;;7.05;4.80;;;;;;;9.41;93.64;99468.91;5026449;28;20032;-65
2022/11/12 00:34:20;;;;;;;6.43;4.00;;;;;;;9.38;93.38;99458.63;5044878;28;20037;-65
2022/11/12 00:36:46;;;;;;;5.28;3.72;;;;;;;9.50;93.34;99460.97;5043391;28;20025;-65
2022/11/12 00:39:11;;;;;;;5.00;4.18;;;;;;;9.41;93.82;99476.66;5045969;28;20040;-64
2022/11/12 00:41:37;;;;;;;4.40;4.00;;;;;;;9.48;93.85;99467.91;5040262;28;20029;-65
2022/11/12 00:44:02;;;;;;;6.93;4.68;;;;;;;9.54;93.67;99471.25;5038998;28;20332;-66
2022/11/12 00:46:28;;;;;;;5.60;4.07;;;;;;;9.47;93.85;99471.34;5045981;28;20026;-65
2022/11/12 00:48:54;;;;;;;4.95;4.45;;;;;;;9.45;94.02;99473.13;5030991;28;20033;-64
2022/11/12 00:51:19;;;;;;;5.60;4.45;;;;;;;9.59;94.17;99470.28;5036165;28;20079;-65
2022/11/12 00:53:49;;;;;;;4.78;4.28;;;;;;;9.51;94.60;99479.91;5044633;28;20025;-64
2022/11/12 00:56:15;;;;;;;7.35;4.47;;;;;;;9.45;94.15;99482.63;5038753;28;20226;-64
2022/11/12 00:58:41;;;;;;;7.25;4.93;;;;;;;9.44;94.08;99478.34;5046035;28;20029;-65
2022/11/12 01:01:10;;;;;;;5.95;4.85;;;;;;;9.40;94.04;99469.78;5030902;28;20136;-64
2022/11/12 01:03:37;;;;;;;6.07;4.90;;;;;;;9.41;94.38;99473.25;5029949;28;20037;-65
2022/11/12 01:06:08;;;;;;;5.50;4.82;;;;;;;9.44;95.72;99453.34;5033110;28;20029;-65
2022/11/12 01:08:34;;;;;;;6.45;4.95;;;;;;;9.48;95.54;99454.97;5039365;28;20055;-66
2022/11/12 01:11:07;;;;;;;5.82;5.10;;;;;;;9.39;95.32;99449.13;5025825;28;20322;-65
2022/11/12 01:13:33;;;;;;;7.20;4.85;;;;;;;9.43;95.61;99436.13;5030462;28;20120;-66
2022/11/12 01:16:03;;;;;;;8.32;5.70;;;;;;;9.36;95.31;99442.28;5037029;28;20329;-65
2022/11/12 01:18:28;;;;;;;5.97;5.25;;;;;;;9.44;95.57;99439.56;5035780;28;20097;-65
2022/11/12 01:20:54;;;;;;;6.45;5.40;;;;;;;9.39;95.30;99437.09;5034135;28;20254;-65
2022/11/12 01:23:20;;;;;;;5.97;5.30;;;;;;;9.44;96.03;99442.16;5032564;28;20098;-65
2022/11/12 01:25:45;;;;;;;6.43;5.03;;;;;;;9.42;95.47;99418.94;5035962;28;20038;-67
2022/11/12 01:28:11;;;;;;;6.03;4.80;;;;;;;9.32;95.23;99425.19;5035226;28;20033;-65
2022/11/12 01:30:36;;;;;;;6.40;4.88;;;;;;;9.40;95.47;99440.50;5036246;28;20084;-65
2022/11/12 01:33:02;;;;;;;6.15;4.90;;;;;;;9.52;95.00;99434.22;5038042;28;20041;-65
2022/11/12 01:35:28;;;;;;;5.60;4.90;;;;;;;9.40;95.03;99417.25;5031279;28;20096;-65
2022/11/12 01:37:54;;;;;;;7.00;5.25;;;;;;;9.41;95.76;99424.13;5028082;28;20068;-65
2022/11/12 01:40:19;;;;;;;7.20;5.15;;;;;;;9.41;95.93;99426.72;5028807;28;20045;-65
2022/11/12 01:42:51;;;;;;;6.00;5.40;;;;;;;9.32;95.73;99423.44;5034685;28;20034;-65
2022/11/12 01:45:17;;;;;;;6.07;4.80;;;;;;;9.41;95.73;99411.22;5043060;28;20124;-64
2022/11/12 01:47:45;;;;;;;6.07;5.45;;;;;;;9.36;95.70;99415.63;5044666;28;20025;-64
2022/11/12 01:50:21;;;;;;;6.78;5.38;;;;;;;9.48;95.23;99429.13;5044571;28;20059;-66
2022/11/12 01:53:01;;;;;;;6.40;4.93;;;;;;;9.53;94.91;99418.69;5033420;28;20318;-65
2022/11/12 01:55:31;;;;;;;7.50;5.15;;;;;;;9.62;94.52;99427.97;5033815;28;20321;-65
2022/11/12 01:58:07;;;;;;;5.30;4.80;;;;;;;9.62;94.92;99426.25;5034194;28;20310;-65
2022/11/12 02:00:33;;;;;;;7.00;5.50;;;;;;;9.59;95.00;99415.13;5033443;28;20088;-66
2022/11/12 02:03:01;;;;;;;5.63;5.13;;;;;;;9.46;94.59;99414.53;5026034;28;20075;-65
2022/11/12 02:05:29;;;;;;;7.60;5.82;;;;;;;9.40;95.11;99402.59;5031741;28;20025;-65
2022/11/12 02:07:58;;;;;;;6.45;4.78;;;;;;;9.59;94.99;99420.28;5030958;28;20040;-65
2022/11/12 02:10:24;;;;;;;5.30;4.80;;;;;;;9.49;95.67;99412.75;5038193;28;20033;-64
2022/11/12 02:15:37;;;;;;;7.03;5.55;;;;;;;9.58;95.41;99397.91;5034152;28;20057;-64
2022/11/12 02:18:03;;;;;;;6.18;4.90;;;;;;;9.56;95.81;99405.69;5038121;28;20063;-65
2022/11/12 02:20:33;;;;;;;6.32;5.38;;;;;;;9.46;96.49;99394.72;5034861;28;20089;-65
2022/11/12 02:22:59;;;;;;;6.40;5.15;;;;;;;9.49;96.37;99391.19;5035902;28;20086;-66
2022/11/12 02:25:26;;;;;;;7.38;5.20;;;;;;;9.55;96.15;99390.22;5047623;28;20037;-65
2022/11/12 02:27:54;;;;;;;8.30;5.35;;;;;;;9.59;96.11;99387.53;5031952;28;20313;-66
2022/11/12 02:30:38;;;;;;;6.25;4.75;;;;;;;9.55;95.73;99377.28;5031366;28;20037;-65
2022/11/12 02:33:04;;;;;;;7.32;5.20;;;;;;;9.49;96.04;99368.81;5037559;28;20222;-65
2022/11/12 02:35:30;;;;;;;7.35;5.03;;;;;;;9.61;95.82;99374.59;5024799;28;20041;-65
2022/11/12 02:37:56;;;;;;;5.30;4.50;;;;;;;9.66;94.94;99373.59;5038083;28;20064;-65
2022/11/12 02:40:22;;;;;;;6.97;5.13;;;;;;;9.64;95.04;99377.09;5026584;28;20030;-65
2022/11/12 02:42:47;;;;;;;5.13;4.60;;;;;;;9.68;95.73;99379.56;5024054;28;20198;-65
2022/11/12 02:45:14;;;;;;;4.85;4.32;;;;;;;9.71;95.03;99370.91;5023532;28;20092;-66
2022/11/12 02:47:40;;;;;;;6.05;4.97;;;;;;;9.70;94.96;99365.75;5023439;28;20026;-65
2022/11/12 02:50:06;;;;;;;6.93;4.82;;;;;;;9.67;95.19;99364.09;5023480;28;20049;-64
2022/11/12 02:52:33;;;;;;;7.25;4.68;;;;;;;9.73;94.83;99361.34;5040767;28;20032;-64
2022/11/12 02:55:00;;;;;;;4.93;3.78;;;;;;;9.75;94.20;99361.31;5030981;28;20026;-64
2022/11/12 02:57:26;;;;;;;4.78;4.22;;;;;;;9.84;93.74;99363.69;5032670;28;20083;-65
2022/11/12 02:59:51;;;;;;;4.72;4.07;;;;;;;9.62;94.19;99340.94;5040222;28;20041;-64
2022/11/12 03:02:17;;;;;;;4.45;4.05;;;;;;;9.81;94.13;99371.53;5023635;28;20234;-65
2022/11/12 03:04:43;;;;;;;4.30;3.90;;;;;;;9.78;93.99;99375.03;5040673;28;20025;-63
2022/11/12 03:07:08;;;;;;;4.82;3.95;;;;;;;9.78;93.93;99372.44;5042186;28;20037;-64
2022/11/12 03:09:34;;;;;;;4.80;4.22;;;;;;;9.79;94.12;99374.16;5034614;28;20056;-65
2022/11/12 03:11:59;;;;;;;4.95;4.43;;;;;;;9.79;93.63;99363.81;5023825;28;20049;-65
2022/11/12 03:14:25;;;;;;;4.15;3.75;;;;;;;9.79;93.33;99355.19;5023599;28;20042;-65
2022/11/12 03:16:51;;;;;;;4.07;3.53;;;;;;;9.73;93.52;99351.00;5042740;28;20033;-65
2022/11/12 03:19:16;;;;;;;5.03;4.20;;;;;;;9.85;93.97;99363.66;5027573;28;20075;-65
2022/11/12 03:21:42;;;;;;;4.85;4.35;;;;;;;9.79;94.16;99344.84;5031566;28;20029;-64
2022/11/12 03:24:08;;;;;;;6.18;4.40;;;;;;;9.82;93.57;99345.63;5038465;28;20044;-65
2022/11/12 03:26:33;;;;;;;5.22;4.60;;;;;;;9.79;93.88;99327.59;5025227;28;20040;-65
2022/11/12 03:28:59;;;;;;;5.93;4.63;;;;;;;9.85;94.14;99314.50;5023402;28;20026;-65
2022/11/12 03:31:24;;;;;;;5.47;4.43;;;;;;;9.91;93.73;99328.19;5023242;28;20226;-65
2022/11/12 03:33:50;;;;;;;5.93;4.60;;;;;;;9.96;93.38;99326.31;5034252;28;20033;-64
2022/11/12 03:36:15;;;;;;;5.05;4.63;;;;;;;9.89;93.81;99329.97;5036679;28;20072;-64
2022/11/12 03:38:41;;;;;;;4.63;4.22;;;;;;;9.84;94.24;99330.91;5025479;28;20206;-64
2022/11/12 03:41:07;;;;;;;4.90;4.40;;;;;;;9.86;93.69;99336.03;5047380;28;20036;-65
2022/11/12 03:43:32;;;;;;;4.95;4.28;;;;;;;9.93;93.94;99336.75;5030454;28;20211;-64
2022/11/12 03:45:58;;;;;;;5.82;4.88;;;;;;;9.85;94.39;99339.53;5039185;28;20037;-64
2022/11/12 03:48:23;;;;;;;4.78;4.35;;;;;;;9.87;94.17;99336.91;5043402;28;20033;-64
2022/11/12 03:50:49;;;;;;;5.82;4.50;;;;;;;9.89;93.99;99332.53;5044718;28;20029;-65
2022/11/12 03:53:15;;;;;;;4.82;4.35;;;;;;;9.90;94.39;99342.84;5025923;28;20037;-64
2022/11/12 03:55:40;;;;;;;5.30;4.30;;;;;;;9.86;94.15;99333.47;5042796;28;20032;-66
2022/11/12 03:58:06;;;;;;;5.82;4.70;;;;;;;9.85;94.66;99330.03;5042936;28;20104;-65
2022/11/12 04:00:32;;;;;;;6.15;4.65;;;;;;;9.84;94.14;99323.16;5037666;28;20029;-65
2022/11/12 04:02:58;;;;;;;6.55;4.55;;;;;;;9.81;94.21;99315.47;5029943;28;20449;-67
2022/11/12 04:10:59;;;;;;;6.82;4.90;;;;;;;9.72;95.10;99294.16;5045996;28;20044;-67
2022/11/12 04:13:27;;;;;;;4.75;4.22;;;;;;;9.85;94.52;99296.41;5031296;28;20100;-66
2022/11/12 04:21:51;;;;;;;5.25;4.22;;;;;;;9.80;94.57;99274.13;5033329;28;20045;-67
2022/11/12 04:27:04;;;;;;;4.80;4.30;;;;;;;9.88;94.40;99289.47;5025854;28;20022;-66
2022/11/12 04:30:30;;;;;;;5.68;3.78;;;;;;;9.92;94.79;99283.31;5026231;28;20042;-67
2022/11/12 04:32:26;;;;;;;6.60;4.95;;;;;;;9.91;94.18;99286.81;5025501;28;20049;-66
2022/11/12 04:34:51;;;;;;;4.88;4.38;;;;;;;9.90;93.94;99285.09;5045207;28;20021;-66
2022/11/12 04:37:17;;;;;;;4.75;4.13;;;;;;;9.95;94.15;99278.09;5030789;28;20048;-67
2022/11/12 04:39:43;;;;;;;4.63;4.13;;;;;;;10.00;93.49;99279.69;5035676;28;20113;-67
2022/11/12 04:45:01;;;;;;;5.57;3.72;;;;;;;10.08;93.33;99284.63;5028060;28;20133;-67
2022/11/12 04:47:32;;;;;;;5.75;4.32;;;;;;;10.14;92.88;99279.28;5045906;28;20034;-66
2022/11/12 04:49:58;;;;;;;6.43;4.53;;;;;;;10.09;93.42;99276.00;5025963;28;20074;-66
2022/11/12 04:52:26;;;;;;;4.75;3.65;;;;;;;9.81;93.25;99229.28;5026761;28;20038;-67
2022/11/12 04:54:52;;;;;;;5.35;4.15;;;;;;;10.06;92.93;99282.97;5036241;28;20420;-67
2022/11/12 04:57:17;;;;;;;4.32;3.92;;;;;;;10.07;93.07;99277.75;5045699;28;20129;-67
2022/11/12 04:59:43;;;;;;;7.75;3.90;;;;;;;10.12;93.26;99277.66;5043682;28;20100;-67
2022/11/12 05:02:08;;;;;;;3.85;3.45;;;;;;;10.11;93.35;99274.19;5025682;28;20256;-67
2022/11/12 05:04:34;;;;;;;4.03;3.63;;;;;;;10.00;93.52;99271.03;5027702;28;20037;-67
2022/11/12 05:07:01;;;;;;;4.13;3.72;;;;;;;9.96;93.69;99278.06;5044217;28;20025;-67
2022/11/12 05:09:28;;;;;;;3.67;3.38;;;;;;;10.09;92.94;99276.00;5045781;28;20043;-67
2022/11/12 05:11:54;;;;;;;4.68;3.60;;;;;;;10.05;93.52;99258.84;5043262;28;20113;-67
2022/11/12 05:14:20;;;;;;;4.65;3.97;;;;;;;10.10;93.60;99271.66;5025395;28;20175;-66
2022/11/12 05:16:46;;;;;;;6.07;4.15;;;;;;;10.14;93.11;99278.44;5042644;28;20036;-66
2022/11/12 05:19:13;;;;;;;4.55;3.83;;;;;;;10.10;93.21;99266.47;5031931;28;20030;-67
2022/11/12 05:24:23;;;;;;;4.50;3.70;;;;;;;10.01;93.38;99267.56;5055987;28;20100;-67
2022/11/12 05:26:49;;;;;;;5.25;3.70;;;;;;;10.03;93.58;99258.03;5043768;28;20028;-66
2022/11/12 05:29:14;;;;;;;4.00;3.60;;;;;;;10.14;93.08;99257.75;5025259;28;20018;-66
2022/11/12 05:31:40;;;;;;;4.63;4.10;;;;;;;10.13;93.27;99267.25;5042019;28;20109;-67
2022/11/12 05:34:06;;;;;;;3.78;3.45;;;;;;;10.19;92.82;99261.91;5032867;28;20104;-66
2022/11/12 05:36:32;;;;;;;4.40;3.75;;;;;;;10.24;92.39;99281.66;5034734;28;20021;-66
2022/11/12 05:38:58;;;;;;;3.90;3.47;;;;;;;10.25;92.66;99271.25;5045071;28;20075;-66
2022/11/12 05:41:24;;;;;;;5.38;3.65;;;;;;;10.12;93.12;99267.31;5045035;28;20041;-67
2022/11/12 05:43:50;;;;;;;4.53;3.83;;;;;;;10.28;93.11;99252.22;5027227;28;20057;-66
2022/11/12 05:46:15;;;;;;;4.07;3.70;;;;;;;10.26;92.65;99262.59;5037748;28;20026;-67
2022/11/12 05:48:41;;;;;;;5.80;4.68;;;;;;;10.33;92.55;99258.97;5035408;28;20269;-67
2022/11/12 05:51:07;;;;;;;3.88;3.47;;;;;;;10.27;92.48;99247.91;5024836;28;20038;-67
2022/11/12 05:53:32;;;;;;;3.78;3.35;;;;;;;10.19;92.82;99246.38;5025108;28;20030;-66
2022/11/12 05:56:02;;;;;;;3.60;3.30;;;;;;;10.41;91.67;99258.78;5042652;28;20021;-66
2022/11/12 05:58:28;;;;;;;3.83;2.70;;;;;;;10.42;92.38;99252.72;5030314;28;20068;-67
2022/11/12 06:00:53;;;;;;;3.35;3.05;;;;;;;10.41;91.76;99261.34;5034360;28;20120;-66
2022/11/12 06:03:19;;;;;;;3.20;2.75;;;;;;;10.41;91.95;99266.53;5038904;28;20025;-68
2022/11/12 06:05:45;;;;;;;3.65;3.20;;;;;;;10.35;91.97;99258.94;5024591;28;20030;-67
2022/11/12 06:08:10;;;;;;;3.10;2.83;;;;;;;10.32;91.87;99253.84;5024292;28;20305;-66
2022/11/12 06:10:36;;;;;;;3.10;2.80;;;;;;;10.34;91.56;99236.53;5024943;28;20021;-66
2022/11/12 06:13:01;;;;;;;4.38;3.20;;;;;;;10.35;92.22;99253.78;5035407;28;20033;-66
2022/11/12 06:15:27;;;;;;;2.78;2.55;;;;;;;10.49;91.29;99263.75;5038023;28;20218;-66
2022/11/12 06:17:53;;;;;;;3.67;3.33;;;;;;;10.48;91.46;99252.53;5042841;28;20136;-68
2022/11/12 06:20:20;;;;;;;3.20;2.90;;;;;;;10.52;90.74;99242.94;5024359;28;20022;-67
2022/11/12 06:22:45;;;;;;;7.03;3.42;;;;;;;10.49;91.63;99246.47;5032436;28;20043;-66
2022/11/12 06:25:11;;;;;;;2.80;2.60;;;;;;;10.54;91.38;99251.50;5039387;28;20270;-67
2022/11/12 06:27:37;;;;;;;3.80;2.72;;;;;;;10.44;91.95;99245.75;5031327;28;20092;-66
2022/11/12 06:30:07;;;;;;;2.60;2.40;;;;;;;10.47;91.66;99240.47;5040725;28;20076;-68
2022/11/12 06:32:33;;;;;;;2.88;2.65;;;;;;;10.34;92.04;99237.38;5022984;28;20041;-67
2022/11/12 06:34:59;;;;;;;5.25;3.03;;;;;;;10.45;91.87;99242.25;5028542;28;20100;-67
2022/11/12 06:37:24;;;;;;;3.22;2.78;;;;;;;10.57;91.06;99250.56;5040239;28;20026;-68
2022/11/12 06:39:50;;;;;;;4.30;2.67;;;;;;;10.59;90.89;99251.38;5038787;28;20021;-67
2022/11/12 06:42:16;;;;;;;4.72;2.80;;;;;;;10.59;90.97;99238.41;5050322;28;20021;-67
2022/11/12 06:44:42;;;;;;;2.60;2.40;;;;;;;10.61;91.34;99244.41;5047545;28;20104;-67
2022/11/12 06:47:08;;;;;;;3.35;2.70;;;;;;;10.64;91.58;99246.91;5051542;28;20033;-67
2022/11/12 06:49:35;;;;;;;4.63;2.40;;;;;;;10.59;90.78;99223.75;5028767;28;20072;-68
2022/11/12 06:52:01;;;;;;;2.78;2.13;;;;;;;10.67;90.84;99216.63;5038733;28;20290;-67
2022/11/12 06:54:27;;;;;;;3.95;2.42;;;;;;;10.63;90.75;99221.91;5050633;28;20028;-68
2022/11/12 06:56:52;;;;;;;2.70;2.10;;;;;;;10.75;90.47;99226.75;5050873;28;20017;-66
2022/11/12 06:59:18;;;;;;;2.47;2.22;;;;;;;10.80;90.13;99226.59;5048422;28;20076;-67
2022/11/12 07:01:43;;;;;;;2.75;2.20;;;;;;;10.75;90.73;99213.78;5027172;28;20021;-65
2022/11/12 07:04:09;;;;;;;3.10;1.90;;;;;;;10.74;90.68;99212.09;5023421;28;20083;-66
2022/11/12 07:06:35;;;;;;;2.15;1.73;;;;;;;10.68;90.80;99205.34;5041836;28;20037;-66
2022/11/12 07:09:02;;;;;;;3.72;2.20;;;;;;;10.56;91.49;99200.53;5041239;28;20030;-65
2022/11/12 07:11:27;;;;;;;3.88;2.42;;;;;;;10.66;91.50;99180.38;5022689;28;20030;-66
2022/11/12 07:13:53;;;;;;;2.45;1.98;;;;;;;10.82;91.02;99184.22;5023400;28;20060;-66
2022/11/12 07:16:19;;;;;;;2.33;1.75;;;;;;;10.75;91.06;99176.69;5036187;28;20029;-67
2022/11/12 07:18:45;;;;;;;1.60;1.50;;;;;;;10.72;90.97;99164.69;5035136;28;20097;-66
2022/11/12 07:21:13;;;;;;;1.80;1.70;;;;;;;10.85;90.53;99160.81;5026947;28;20037;-66
2022/11/12 07:23:39;;;;;;;3.05;1.75;;;;;;;10.90;89.88;99154.63;5054534;28;20033;-65
2022/11/12 07:26:07;;;;;;;2.38;1.67;;;;;;;10.75;89.98;99143.03;5042872;28;20338;-65
2022/11/12 07:28:33;;;;;;;2.17;1.88;;;;;;;10.88;90.32;99165.03;5027263;28;20028;-68
2022/11/12 07:31:05;;;;;;;5.65;2.08;;;;;;;10.81;90.61;99150.59;5033169;28;20065;-66
2022/11/12 07:33:32;;;;;;;1.73;1.63;;;;;;;10.87;89.47;99140.91;5036889;28;20045;-67
2022/11/12 07:36:00;;;;;;;2.40;1.50;;;;;;;10.97;89.50;99135.41;5027867;28;20079;-67
2022/11/12 07:38:27;;;;;;;2.70;1.75;;;;;;;11.04;88.90;99134.31;5042855;28;20033;-66
2022/11/12 07:41:13;;;;;;;1.38;1.27;;;;;;;11.00;89.47;99122.34;5039531;28;20028;-67
2022/11/12 07:43:40;;;;;;;1.73;1.40;;;;;;;11.07;89.04;99121.25;5028140;28;20037;-67
2022/11/12 07:46:12;;;;;;;3.20;1.60;;;;;;;10.94;88.53;99112.19;5033703;28;20029;-67
2022/11/12 07:48:38;;;;;;;;;;;;;;;11.04;89.04;99126.53;5036549;28;20238;-66
2022/11/12 07:51:11;;;;;;;2.17;1.58;;;;;;;11.02;88.50;99129.19;5023114;28;19909;-66
2022/11/12 07:53:37;;;;;;;1.88;1.70;;;;;;;11.06;88.33;99127.34;5023434;28;20029;-66
2022/11/12 07:56:03;;;;;;;1.90;1.55;;;;;;;11.12;88.74;99134.06;5041478;28;20080;-67
2022/11/12 07:58:31;;;;;;;1.42;1.33;;;;;;;11.01;88.79;99105.91;5029016;28;20064;-68
2022/11/12 08:00:57;;;;;;;3.53;1.85;;;;;;;10.89;88.73;99076.06;5022916;28;20030;-66
2022/11/12 08:03:23;;;;;;;3.58;1.70;;;;;;;11.14;88.12;99116.72;5021584;28;20021;-67
2022/11/12 08:05:49;;;;;;;1.55;1.27;;;;;;;11.20;88.32;99114.78;5034128;28;20093;-67
2022/11/12 08:08:15;;;;;;;2.35;1.55;;;;;;;11.26;88.28;99123.22;5042668;28;20025;-66
2022/11/12 08:10:40;;;;;;;2.05;1.48;;;;;;;11.22;87.95;99101.75;5041677;28;20257;-65
2022/11/12 08:13:06;;;;;;;2.03;1.73;;;;;;;11.19;87.79;99107.91;5042647;28;20033;-67
2022/11/12 08:15:32;;;;;;;3.03;1.40;;;;;;;11.19;88.61;99094.09;5037175;28;20022;-67
2022/11/12 08:17:57;;;;;;;1.85;1.50;;;;;;;11.26;88.63;99090.41;5022841;28;20101;-66
2022/11/12 08:20:23;;;;;;;1.60;1.50;;;;;;;11.30;88.26;99075.56;5042603;28;20229;-67
2022/11/12 08:22:49;;;;;;;2.80;1.50;;;;;;;11.18;88.00;99072.50;5034370;28;20021;-67
2022/11/12 08:25:15;;;;;;;2.60;1.35;;;;;;;11.23;88.42;99067.19;5052361;28;20032;-67
2022/11/12 08:27:41;;;;;;;4.20;1.92;;;;;;;11.19;88.56;99061.25;5039708;28;20026;-67
2022/11/12 08:30:07;;;;;;;2.25;1.50;;;;;;;11.28;88.35;99067.03;5028597;28;20033;-66
2022/11/12 08:32:33;;;;;;;2.15;1.58;;;;;;;11.26;88.25;99053.25;5046440;28;20248;-67
2022/11/12 08:34:59;;;;;;;2.90;1.58;;;;;;;11.28;88.17;99038.50;5028606;28;20029;-66
2022/11/12 08:37:24;;;;;;;2.00;1.30;;;;;;;11.18;88.22;99038.81;5029886;28;20034;-66
2022/11/12 08:39:50;;;;;;;1.90;1.60;;;;;;;11.34;87.66;99035.69;5033165;28;20056;-67
2022/11/12 08:42:15;;;;;;;2.40;1.70;;;;;;;11.37;87.38;99038.16;5041555;28;20314;-67
2022/11/12 08:44:41;;;;;;;1.60;1.50;;;;;;;11.28;88.41;99028.13;5025943;28;20041;-67
2022/11/12 08:47:06;;;;;;;1.42;1.33;;;;;;;11.14;88.37;99026.84;5044408;28;20207;-68
2022/11/12 08:49:32;;;;;;;3.17;1.60;;;;;;;11.26;88.49;99027.31;5042856;28;20029;-66
2022/11/12 08:51:58;;;;;;;3.38;1.60;;;;;;;11.34;88.39;99031.38;5037040;28;20333;-67
2022/11/12 08:54:23;;;;;;;3.05;1.40;;;;;;;11.43;87.31;99030.19;5030255;28;20112;-66
2022/11/12 08:56:50;;;;;;;4.65;2.03;;;;;;;11.44;88.01;99013.72;5045891;28;20021;-66
2022/11/12 08:59:16;;;;;;;2.60;1.60;;;;;;;11.44;87.17;99007.69;5026084;28;20022;-66
2022/11/12 09:01:42;;;;;;;2.83;1.38;;;;;;;11.39;87.23;99006.09;5040622;28;20321;-66
2022/11/12 09:04:07;;;;;;;1.90;1.40;;;;;;;11.35;88.02;98993.31;5034979;28;20022;-67
2022/11/12 09:06:33;;;;;;;2.80;1.40;;;;;;;11.39;87.32;98987.97;5048034;28;20375;-67
2022/11/12 09:08:59;;;;;;;1.95;1.48;;;;;;;11.37;87.91;98983.72;5047364;28;20037;-66
2022/11/12 09:11:24;;;;;;;1.45;1.35;;;;;;;11.44;87.43;98982.59;5025505;28;20040;-65
2022/11/12 09:13:53;;;;;;;1.98;1.30;;;;;;;11.46;87.96;98972.16;5025618;28;20064;-66
2022/11/12 09:16:20;;;;;;;2.88;1.50;;;;;;;11.54;87.88;98971.00;5035899;28;20075;-65
2022/11/12 09:18:46;;;;;;;2.20;1.80;;;;;;;11.44;87.28;98980.00;5038027;28;20230;-65
2022/11/12 09:21:12;;;;;;;1.70;1.40;;;;;;;11.44;87.70;98961.03;5028009;28;20029;-67
2022/11/12 09:23:38;;;;;;;3.65;1.63;;;;;;;11.38;88.07;98949.97;5045735;28;20033;-66
2022/11/12 09:26:05;;;;;;;1.88;1.67;;;;;;;11.44;88.55;98935.09;5027286;28;20084;-67
2022/11/12 09:28:31;;;;;;;2.50;1.50;;;;;;;11.46;88.47;98930.69;5038732;28;20025;-67
2022/11/12 09:30:57;;;;;;;2.40;1.48;;;;;;;11.51;88.57;98923.59;5035409;28;20046;-67
2022/11/12 09:33:26;;;;;;;3.70;1.48;;;;;;;11.37;89.18;98921.50;5034692;28;20037;-67
2022/11/12 09:35:52;;;;;;;1.75;1.40;;;;;;;11.40;89.32;98926.56;5028285;28;20037;-67
2022/11/12 09:38:18;;;;;;;1.40;1.30;;;;;;;11.26;89.14;98918.47;5044337;28;20381;-67
2022/11/12 09:40:50;;;;;;;3.55;1.67;;;;;;;11.27;89.68;98909.78;5038439;28;20090;-67
2022/11/12 09:43:33;;;;;;;1.73;1.63;;;;;;;11.34;89.45;98896.56;5032292;28;20283;-66
2022/11/12 09:46:05;;;;;;;1.65;1.30;;;;;;;11.20;89.75;98884.09;5033957;28;20033;-67
2022/11/12 09:48:41;;;;;;;1.80;1.70;;;;;;;11.27;89.38;98879.53;5040108;28;20034;-67
2022/11/12 09:51:24;;;;;;;1.58;1.48;;;;;;;11.27;88.70;98865.72;5023453;28;20026;-66
2022/11/12 09:53:58;;;;;;;1.50;1.25;;;;;;;11.24;89.14;98869.28;5007619;28;20318;-68
2022/11/12 09:56:27;;;;;;;2.67;1.50;;;;;;;11.10;89.49;98837.84;5024904;28;20046;-68
2022/11/12 09:58:53;;;;;;;2.08;1.50;;;;;;;11.40;89.17;98860.03;5040592;28;20017;-67
2022/11/12 10:01:32;;;;;;;2.40;1.40;;;;;;;11.44;88.81;98859.91;5033265;28;20033;-67
2022/11/12 10:04:22;;;;;;;1.58;1.35;;;;;;;11.48;88.45;98830.38;5033203;28;20025;-68
2022/11/12 10:07:17;;;;;;;2.22;1.42;;;;;;;11.46;88.34;98846.00;5024581;28;20294;-68
2022/11/12 10:10:01;;;;;;;2.50;1.55;;;;;;;11.40;88.37;98825.47;5039814;28;20045;-68
2022/11/12 10:13:04;;;;;;;2.15;1.30;;;;;;;11.60;88.30;98842.00;5049561;28;20025;-68
2022/11/12 10:19:26;;;;;;;2.78;1.58;;;;;;;11.57;87.85;98832.59;5047148;28;20041;-67
2022/11/12 10:22:19;;;;;;;3.00;1.30;;;;;;;11.67;87.86;98830.47;5051096;28;20221;-67
2022/11/12 10:24:47;;;;;;;2.55;1.20;;;;;;;11.74;87.20;98825.00;5049018;28;20030;-68
2022/11/12 10:27:17;;;;;;;2.50;1.17;;;;;;;11.59;87.74;98815.22;5049517;28;20300;-67
2022/11/12 10:30:15;;;;;;;1.40;1.30;;;;;;;11.50;88.17;98794.84;5050552;28;20047;-68
2022/11/12 10:32:43;;;;;;;2.03;1.33;;;;;;;11.57;88.38;98807.50;5049783;28;20038;-68
2022/11/12 10:35:11;;;;;;;3.35;1.60;;;;;;;11.73;87.82;98822.47;5050306;28;20028;-67
2022/11/12 10:37:41;;;;;;;1.50;1.30;;;;;;;11.69;87.54;98818.31;5048557;28;20039;-68
2022/11/12 10:40:38;;;;;;;1.70;1.48;;;;;;;11.55;87.00;98796.34;5049209;28;20043;-66
2022/11/12 10:43:14;;;;;;;2.90;1.60;;;;;;;11.67;87.58;98808.00;5051512;28;20056;-68
2022/11/12 10:45:40;;;;;;;3.80;1.50;;;;;;;11.77;88.16;98826.59;5050057;28;20290;-68
2022/11/12 10:48:33;;;;;;;2.38;1.50;;;;;;;11.63;88.19;98792.59;5052203;28;20036;-69
2022/11/12 10:50:59;;;;;;;2.67;1.67;;;;;;;11.63;88.49;98792.59;5054386;28;20025;-68
2022/11/12 10:53:38;;;;;;;2.80;1.65;;;;;;;11.64;88.58;98792.53;5050299;28;20578;-67
2022/11/12 10:56:24;;;;;;;2.13;1.33;;;;;;;11.63;87.97;98775.31;5049652;28;20030;-67
2022/11/12 10:59:14;;;;;;;2.83;1.30;;;;;;;11.65;87.55;98790.81;5047707;28;20031;-66
2022/11/12 11:01:42;;;;;;;1.90;1.20;;;;;;;11.71;87.97;98794.00;5052158;28;20052;-66
2022/11/12 11:04:27;;;;;;;1.98;1.45;;;;;;;11.67;87.92;98773.41;5050067;28;20337;-66
2022/11/12 11:07:03;;;;;;;2.05;1.40;;;;;;;11.68;87.83;98755.19;5052248;28;20093;-66
2022/11/12 11:09:29;;;;;;;2.45;1.25;;;;;;;11.62;88.94;98772.78;5048268;28;20053;-67
2022/11/12 11:11:56;;;;;;;3.58;1.25;;;;;;;11.58;88.77;98754.72;5054237;28;20029;-67
2022/11/12 11:14:21;;;;;;;1.40;1.30;;;;;;;11.56;89.28;98755.72;5024968;28;20029;-67
2022/11/12 11:16:51;;;;;;;2.08;1.35;;;;;;;11.49;90.44;98749.94;5050372;28;20088;-67
2022/11/12 11:19:18;;;;;;;1.38;1.27;;;;;;;11.55;90.99;98743.66;5050315;28;20209;-67
2022/11/12 11:21:49;;;;;;;2.60;1.55;;;;;;;11.51;91.27;98737.72;5052104;28;20309;-66
2022/11/12 11:24:21;;;;;;;1.30;1.20;;;;;;;11.51;91.45;98731.72;5044179;28;20143;-67
2022/11/12 11:26:59;;;;;;;1.92;1.40;;;;;;;11.48;91.21;98735.25;5047687;28;20055;-67
2022/11/12 11:29:43;;;;;;;1.45;1.20;;;;;;;11.57;91.36;98711.56;5053074;28;20033;-67
2022/11/12 11:32:28;;;;;;;1.25;1.10;;;;;;;11.48;91.52;98716.28;5048810;28;20044;-66
2022/11/12 11:35:05;;;;;;;3.25;1.70;;;;;;;11.44;91.66;98702.59;5050049;28;20051;-67
2022/11/12 11:37:42;;;;;;;1.50;1.30;;;;;;;11.28;92.43;98675.63;5022733;28;20416;-67
2022/11/12 11:40:44;;;;;;;1.80;1.40;;;;;;;11.46;91.32;98672.28;5032212;28;20030;-67
2022/11/12 11:43:28;;;;;;;1.75;1.58;;;;;;;11.52;91.24;98678.94;5051598;28;20045;-67
2022/11/12 11:46:06;;;;;;;3.55;1.60;;;;;;;11.50;91.91;98666.06;5022914;28;20372;-67
2022/11/12 11:48:56;;;;;;;2.00;1.60;;;;;;;11.45;91.82;98662.81;5022835;28;20032;-67
2022/11/12 11:51:49;;;;;;;1.88;1.27;;;;;;;11.38;92.08;98638.03;5027216;28;20026;-68
2022/11/12 11:54:42;;;;;;;2.35;1.20;;;;;;;11.40;92.14;98649.16;5023253;28;20030;-67
2022/11/12 11:57:15;;;;;;;2.67;1.40;;;;;;;11.42;92.14;98634.41;5042141;28;20029;-67
2022/11/12 12:00:00;;;;;;;2.17;1.45;;;;;;;11.33;93.19;98625.28;5022712;28;20046;-67
2022/11/12 12:02:29;;;;;;;2.78;1.60;;;;;;;11.38;93.43;98625.91;5046026;28;20104;-67
2022/11/12 12:05:25;;;;;;;10.77;5.43;;;;;;;11.42;93.47;98613.69;5046631;28;20079;-66
2022/11/12 12:07:57;;;;;;;3.78;1.55;;;;;;;11.29;93.02;98607.34;5046092;28;20389;-67
2022/11/12 12:10:38;;;;;;;3.15;2.67;;;;;;;11.32;93.83;98609.78;5035632;28;20034;-67